sensor_id;sensor_type;location;lat;lon;timestamp;temperature;humidity
45807;DHT22;31507;51.494;7.518;2022-09-14T00:00:00;16.60;99.90
45807;DHT22;31507;51.494;7.518;2022-09-14T00:02:25;16.60;99.90
45807;DHT22;31507;51.494;7.518;2022-09-14T00:04:51;16.50;99.90
45807;DHT22;31507;51.494;7.518;2022-09-14T00:07:17;16.50;99.90
45807;DHT22;31507;51.494;7.518;2022-09-14T00:09:42;16.50;99.90
45807;DHT22;31507;51.494;7.518;2022-09-14T00:12:09;16.50;99.90
45807;DHT22;31507;51.494;7.518;2022-09-14T00:14:35;16.50;99.90
45807;DHT22;31507;51.494;7.518;2022-09-14T00:17:01;16.40;99.90
45807;DHT22;31507;51.494;7.518;2022-09-14T00:19:26;16.40;99.90
45807;DHT22;31507;51.494;7.518;2022-09-14T00:21:55;16.40;99.90
45807;DHT22;31507;51.494;7.518;2022-09-14T00:24:22;16.30;99.90
45807;DHT22;31507;51.494;7.518;2022-09-14T00:26:49;16.30;99.90
45807;DHT22;31507;51.494;7.518;2022-09-14T00:29:15;16.20;99.90
45807;DHT22;31507;51.494;7.518;2022-09-14T00:31:40;16.20;99.90
45807;DHT22;31507;51.494;7.518;2022-09-14T00:34:09;16.20;99.90
45807;DHT22;31507;51.494;7.518;2022-09-14T00:36:44;16.20;99.90
45807;DHT22;31507;51.494;7.518;2022-09-14T00:39:12;16.20;99.90
45807;DHT22;31507;51.494;7.518;2022-09-14T00:41:40;16.20;99.90
45807;DHT22;31507;51.494;7.518;2022-09-14T00:46:46;16.20;99.90
45807;DHT22;31507;51.494;7.518;2022-09-14T00:49:33;16.20;99.90
45807;DHT22;31507;51.494;7.518;2022-09-14T00:52:19;16.20;99.90
45807;DHT22;31507;51.494;7.518;2022-09-14T00:54:55;16.20;99.90
45807;DHT22;31507;51.494;7.518;2022-09-14T00:57:22;16.20;99.90
45807;DHT22;31507;51.494;7.518;2022-09-14T00:59:50;16.20;99.90
45807;DHT22;31507;51.494;7.518;2022-09-14T01:02:18;16.20;99.90
45807;DHT22;31507;51.494;7.518;2022-09-14T01:04:45;16.20;99.90
45807;DHT22;31507;51.494;7.518;2022-09-14T01:07:37;16.20;99.90
45807;DHT22;31507;51.494;7.518;2022-09-14T01:17:45;16.20;99.90
45807;DHT22;31507;51.494;7.518;2022-09-14T01:20:34;16.20;99.90
45807;DHT22;31507;51.494;7.518;2022-09-14T01:23:11;16.30;99.90
45807;DHT22;31507;51.494;7.518;2022-09-14T01:28:38;16.20;99.90
45807;DHT22;31507;51.494;7.518;2022-09-14T01:31:12;16.20;99.90
45807;DHT22;31507;51.494;7.518;2022-09-14T01:33:46;16.20;99.90
45807;DHT22;31507;51.494;7.518;2022-09-14T01:36:15;16.20;99.90
45807;DHT22;31507;51.494;7.518;2022-09-14T01:38:48;16.10;99.90
45807;DHT22;31507;51.494;7.518;2022-09-14T01:41:19;16.10;99.90
45807;DHT22;31507;51.494;7.518;2022-09-14T01:44:07;16.10;99.90
45807;DHT22;31507;51.494;7.518;2022-09-14T01:46:46;16.10;99.90
45807;DHT22;31507;51.494;7.518;2022-09-14T01:49:20;16.00;99.90
45807;DHT22;31507;51.494;7.518;2022-09-14T01:52:04;16.00;99.90
45807;DHT22;31507;51.494;7.518;2022-09-14T01:54:48;15.90;99.90
45807;DHT22;31507;51.494;7.518;2022-09-14T01:57:20;15.80;99.90
45807;DHT22;31507;51.494;7.518;2022-09-14T01:59:49;15.80;99.90
45807;DHT22;31507;51.494;7.518;2022-09-14T02:02:34;15.70;99.90
45807;DHT22;31507;51.494;7.518;2022-09-14T02:07:48;15.40;99.90
45807;DHT22;31507;51.494;7.518;2022-09-14T02:10:15;15.30;99.90
45807;DHT22;31507;51.494;7.518;2022-09-14T02:12:41;15.30;99.90
45807;DHT22;31507;51.494;7.518;2022-09-14T02:15:10;15.30;99.90
45807;DHT22;31507;51.494;7.518;2022-09-14T02:17:36;15.20;99.90
45807;DHT22;31507;51.494;7.518;2022-09-14T02:20:05;15.20;99.90
45807;DHT22;31507;51.494;7.518;2022-09-14T02:22:32;15.20;99.90
45807;DHT22;31507;51.494;7.518;2022-09-14T02:24:58;15.10;99.90
45807;DHT22;31507;51.494;7.518;2022-09-14T02:27:24;15.00;99.90
45807;DHT22;31507;51.494;7.518;2022-09-14T02:29:50;15.00;99.90
45807;DHT22;31507;51.494;7.518;2022-09-14T02:32:20;14.80;99.90
45807;DHT22;31507;51.494;7.518;2022-09-14T02:35:44;14.80;99.90
45807;DHT22;31507;51.494;7.518;2022-09-14T02:53:57;14.50;99.90
45807;DHT22;31507;51.494;7.518;2022-09-14T02:56:25;14.40;99.90
45807;DHT22;31507;51.494;7.518;2022-09-14T02:58:53;14.40;99.90
45807;DHT22;31507;51.494;7.518;2022-09-14T03:01:20;14.40;99.90
45807;DHT22;31507;51.494;7.518;2022-09-14T03:03:47;14.40;99.90
45807;DHT22;31507;51.494;7.518;2022-09-14T03:06:13;14.40;99.90
45807;DHT22;31507;51.494;7.518;2022-09-14T03:08:39;14.40;99.90
45807;DHT22;31507;51.494;7.518;2022-09-14T03:11:05;14.40;99.90
45807;DHT22;31507;51.494;7.518;2022-09-14T03:13:30;14.40;99.90
45807;DHT22;31507;51.494;7.518;2022-09-14T03:15:56;14.40;99.90
45807;DHT22;31507;51.494;7.518;2022-09-14T03:18:22;14.40;99.90
45807;DHT22;31507;51.494;7.518;2022-09-14T03:20:47;14.40;99.90
45807;DHT22;31507;51.494;7.518;2022-09-14T03:23:13;14.40;99.90
45807;DHT22;31507;51.494;7.518;2022-09-14T03:25:45;14.40;99.90
45807;DHT22;31507;51.494;7.518;2022-09-14T03:28:12;14.40;99.90
45807;DHT22;31507;51.494;7.518;2022-09-14T03:30:38;14.40;99.90
45807;DHT22;31507;51.494;7.518;2022-09-14T03:33:04;14.40;99.90
45807;DHT22;31507;51.494;7.518;2022-09-14T03:35:30;14.40;99.90
45807;DHT22;31507;51.494;7.518;2022-09-14T03:37:57;14.40;99.90
45807;DHT22;31507;51.494;7.518;2022-09-14T03:40:24;14.30;99.90
45807;DHT22;31507;51.494;7.518;2022-09-14T03:42:51;14.30;99.90
45807;DHT22;31507;51.494;7.518;2022-09-14T03:45:18;14.30;99.90
45807;DHT22;31507;51.494;7.518;2022-09-14T03:47:45;14.30;99.90
45807;DHT22;31507;51.494;7.518;2022-09-14T03:50:12;14.30;99.90
45807;DHT22;31507;51.494;7.518;2022-09-14T03:52:38;14.30;99.90
45807;DHT22;31507;51.494;7.518;2022-09-14T03:55:05;14.30;99.90
45807;DHT22;31507;51.494;7.518;2022-09-14T03:57:33;14.30;99.90
45807;DHT22;31507;51.494;7.518;2022-09-14T04:00:02;14.20;99.90
45807;DHT22;31507;51.494;7.518;2022-09-14T04:02:32;14.20;99.90
45807;DHT22;31507;51.494;7.518;2022-09-14T04:04:58;14.20;99.90
45807;DHT22;31507;51.494;7.518;2022-09-14T04:07:24;14.20;99.90
45807;DHT22;31507;51.494;7.518;2022-09-14T04:09:49;14.20;99.90
45807;DHT22;31507;51.494;7.518;2022-09-14T04:12:15;14.20;99.90
45807;DHT22;31507;51.494;7.518;2022-09-14T04:14:40;14.20;99.90
45807;DHT22;31507;51.494;7.518;2022-09-14T04:17:06;14.20;99.90
45807;DHT22;31507;51.494;7.518;2022-09-14T04:19:31;14.20;99.90
45807;DHT22;31507;51.494;7.518;2022-09-14T04:21:58;14.20;99.90
45807;DHT22;31507;51.494;7.518;2022-09-14T04:24:24;14.20;99.90
45807;DHT22;31507;51.494;7.518;2022-09-14T04:26:49;14.20;99.90
45807;DHT22;31507;51.494;7.518;2022-09-14T04:29:15;14.20;99.90
45807;DHT22;31507;51.494;7.518;2022-09-14T04:31:41;14.20;99.90
45807;DHT22;31507;51.494;7.518;2022-09-14T04:34:08;14.10;99.90
45807;DHT22;31507;51.494;7.518;2022-09-14T04:36:34;14.10;99.90
45807;DHT22;31507;51.494;7.518;2022-09-14T04:39:02;14.10;99.90
45807;DHT22;31507;51.494;7.518;2022-09-14T04:41:28;14.10;99.90
45807;DHT22;31507;51.494;7.518;2022-09-14T04:43:55;14.10;99.90
45807;DHT22;31507;51.494;7.518;2022-09-14T04:46:24;14.10;99.90
45807;DHT22;31507;51.494;7.518;2022-09-14T04:48:50;14.10;99.90
45807;DHT22;31507;51.494;7.518;2022-09-14T04:51:18;14.10;99.90
45807;DHT22;31507;51.494;7.518;2022-09-14T04:53:46;14.00;99.90
45807;DHT22;31507;51.494;7.518;2022-09-14T04:56:13;14.10;99.90
45807;DHT22;31507;51.494;7.518;2022-09-14T04:58:42;14.00;99.90
45807;DHT22;31507;51.494;7.518;2022-09-14T05:01:13;14.00;99.90
45807;DHT22;31507;51.494;7.518;2022-09-14T05:03:39;14.00;99.90
45807;DHT22;31507;51.494;7.518;2022-09-14T05:06:07;14.00;99.90
45807;DHT22;31507;51.494;7.518;2022-09-14T05:08:33;14.00;99.90
45807;DHT22;31507;51.494;7.518;2022-09-14T05:11:04;14.00;99.90
45807;DHT22;31507;51.494;7.518;2022-09-14T05:13:30;14.00;99.90
45807;DHT22;31507;51.494;7.518;2022-09-14T05:16:04;14.00;99.90
45807;DHT22;31507;51.494;7.518;2022-09-14T05:18:30;14.00;99.90
45807;DHT22;31507;51.494;7.518;2022-09-14T05:20:56;14.00;99.90
45807;DHT22;31507;51.494;7.518;2022-09-14T05:23:24;14.00;99.90
45807;DHT22;31507;51.494;7.518;2022-09-14T05:25:53;13.90;99.90
45807;DHT22;31507;51.494;7.518;2022-09-14T05:28:19;13.90;99.90
45807;DHT22;31507;51.494;7.518;2022-09-14T05:30:44;13.90;99.90
45807;DHT22;31507;51.494;7.518;2022-09-14T05:33:10;13.90;99.90
45807;DHT22;31507;51.494;7.518;2022-09-14T05:35:35;13.90;99.90
45807;DHT22;31507;51.494;7.518;2022-09-14T05:38:01;13.80;99.90
45807;DHT22;31507;51.494;7.518;2022-09-14T05:40:26;13.80;99.90
45807;DHT22;31507;51.494;7.518;2022-09-14T05:42:52;13.80;99.90
45807;DHT22;31507;51.494;7.518;2022-09-14T05:45:17;13.80;99.90
45807;DHT22;31507;51.494;7.518;2022-09-14T05:47:43;13.80;99.90
45807;DHT22;31507;51.494;7.518;2022-09-14T05:50:09;13.80;99.90
45807;DHT22;31507;51.494;7.518;2022-09-14T05:52:34;13.70;99.90
45807;DHT22;31507;51.494;7.518;2022-09-14T05:55:00;13.70;99.90
45807;DHT22;31507;51.494;7.518;2022-09-14T05:57:26;13.70;99.90
45807;DHT22;31507;51.494;7.518;2022-09-14T05:59:52;13.70;99.90
45807;DHT22;31507;51.494;7.518;2022-09-14T06:02:19;13.60;99.90
45807;DHT22;31507;51.494;7.518;2022-09-14T06:04:45;13.60;99.90
45807;DHT22;31507;51.494;7.518;2022-09-14T06:07:10;13.60;99.90
45807;DHT22;31507;51.494;7.518;2022-09-14T06:09:36;13.60;99.90
45807;DHT22;31507;51.494;7.518;2022-09-14T06:12:02;13.60;99.90
45807;DHT22;31507;51.494;7.518;2022-09-14T06:14:28;13.60;99.90
45807;DHT22;31507;51.494;7.518;2022-09-14T06:16:54;13.50;99.90
45807;DHT22;31507;51.494;7.518;2022-09-14T06:19:20;13.50;99.90
45807;DHT22;31507;51.494;7.518;2022-09-14T06:21:45;13.60;99.90
45807;DHT22;31507;51.494;7.518;2022-09-14T06:24:11;13.60;99.90
45807;DHT22;31507;51.494;7.518;2022-09-14T06:26:38;13.50;99.90
45807;DHT22;31507;51.494;7.518;2022-09-14T06:29:03;13.50;99.90
45807;DHT22;31507;51.494;7.518;2022-09-14T06:31:29;13.50;99.90
45807;DHT22;31507;51.494;7.518;2022-09-14T06:33:55;13.50;99.90
45807;DHT22;31507;51.494;7.518;2022-09-14T06:36:22;13.50;99.90
45807;DHT22;31507;51.494;7.518;2022-09-14T06:38:48;13.50;99.90
45807;DHT22;31507;51.494;7.518;2022-09-14T06:41:17;13.50;99.90
45807;DHT22;31507;51.494;7.518;2022-09-14T06:43:45;13.50;99.90
45807;DHT22;31507;51.494;7.518;2022-09-14T06:46:16;13.50;99.90
45807;DHT22;31507;51.494;7.518;2022-09-14T06:48:50;13.50;99.90
45807;DHT22;31507;51.494;7.518;2022-09-14T06:51:25;13.50;99.90
45807;DHT22;31507;51.494;7.518;2022-09-14T06:53:54;13.50;99.90
45807;DHT22;31507;51.494;7.518;2022-09-14T06:56:21;13.50;99.90
45807;DHT22;31507;51.494;7.518;2022-09-14T06:58:48;13.60;99.90
45807;DHT22;31507;51.494;7.518;2022-09-14T07:01:17;13.60;99.90
45807;DHT22;31507;51.494;7.518;2022-09-14T07:03:44;13.50;99.90
45807;DHT22;31507;51.494;7.518;2022-09-14T07:06:17;13.50;99.90
45807;DHT22;31507;51.494;7.518;2022-09-14T07:08:43;13.60;99.90
45807;DHT22;31507;51.494;7.518;2022-09-14T07:11:10;13.60;99.90
45807;DHT22;31507;51.494;7.518;2022-09-14T07:13:37;13.60;99.90
45807;DHT22;31507;51.494;7.518;2022-09-14T07:16:05;13.60;99.90
45807;DHT22;31507;51.494;7.518;2022-09-14T07:18:31;13.60;99.90
45807;DHT22;31507;51.494;7.518;2022-09-14T07:23:34;13.70;99.90
45807;DHT22;31507;51.494;7.518;2022-09-14T07:28:34;13.70;99.90
45807;DHT22;31507;51.494;7.518;2022-09-14T07:31:00;13.70;99.90
45807;DHT22;31507;51.494;7.518;2022-09-14T07:33:27;13.70;99.90
45807;DHT22;31507;51.494;7.518;2022-09-14T07:35:53;13.60;99.90
45807;DHT22;31507;51.494;7.518;2022-09-14T07:38:20;13.60;99.90
45807;DHT22;31507;51.494;7.518;2022-09-14T07:40:46;13.60;99.90
45807;DHT22;31507;51.494;7.518;2022-09-14T07:43:13;13.60;99.90
45807;DHT22;31507;51.494;7.518;2022-09-14T07:45:39;13.70;99.90
45807;DHT22;31507;51.494;7.518;2022-09-14T07:48:08;13.60;99.90
45807;DHT22;31507;51.494;7.518;2022-09-14T07:50:35;13.60;99.90
45807;DHT22;31507;51.494;7.518;2022-09-14T07:53:02;13.60;99.90
45807;DHT22;31507;51.494;7.518;2022-09-14T07:55:38;13.70;99.90
45807;DHT22;31507;51.494;7.518;2022-09-14T07:58:04;13.60;99.90
45807;DHT22;31507;51.494;7.518;2022-09-14T08:00:30;13.60;99.90
45807;DHT22;31507;51.494;7.518;2022-09-14T08:02:56;13.60;99.90
45807;DHT22;31507;51.494;7.518;2022-09-14T08:05:23;13.50;99.90
45807;DHT22;31507;51.494;7.518;2022-09-14T08:07:55;13.60;99.90
45807;DHT22;31507;51.494;7.518;2022-09-14T08:10:22;13.60;99.90
45807;DHT22;31507;51.494;7.518;2022-09-14T08:12:52;13.60;99.90
45807;DHT22;31507;51.494;7.518;2022-09-14T08:15:21;13.40;99.90
45807;DHT22;31507;51.494;7.518;2022-09-14T08:17:48;13.40;99.90
45807;DHT22;31507;51.494;7.518;2022-09-14T08:20:14;13.50;99.90
45807;DHT22;31507;51.494;7.518;2022-09-14T08:22:42;13.40;99.90
45807;DHT22;31507;51.494;7.518;2022-09-14T08:25:10;13.30;99.90
45807;DHT22;31507;51.494;7.518;2022-09-14T08:27:36;13.30;99.90
45807;DHT22;31507;51.494;7.518;2022-09-14T08:30:01;13.30;99.90
45807;DHT22;31507;51.494;7.518;2022-09-14T08:32:27;13.30;99.90
45807;DHT22;31507;51.494;7.518;2022-09-14T08:34:53;13.30;99.90
45807;DHT22;31507;51.494;7.518;2022-09-14T08:37:20;13.20;99.90
45807;DHT22;31507;51.494;7.518;2022-09-14T08:39:46;13.20;99.90
45807;DHT22;31507;51.494;7.518;2022-09-14T08:42:17;13.20;99.90
45807;DHT22;31507;51.494;7.518;2022-09-14T08:44:48;13.20;99.90
45807;DHT22;31507;51.494;7.518;2022-09-14T08:47:24;13.20;99.90
45807;DHT22;31507;51.494;7.518;2022-09-14T08:55:01;13.10;99.90
45807;DHT22;31507;51.494;7.518;2022-09-14T08:57:42;13.10;99.90
45807;DHT22;31507;51.494;7.518;2022-09-14T09:00:13;13.00;99.90
45807;DHT22;31507;51.494;7.518;2022-09-14T09:11:21;13.00;99.90
45807;DHT22;31507;51.494;7.518;2022-09-14T09:13:51;13.00;99.90
45807;DHT22;31507;51.494;7.518;2022-09-14T09:16:21;13.00;99.90
45807;DHT22;31507;51.494;7.518;2022-09-14T09:19:00;13.00;99.90
45807;DHT22;31507;51.494;7.518;2022-09-14T09:21:35;13.00;99.90
45807;DHT22;31507;51.494;7.518;2022-09-14T09:24:36;13.00;99.90
45807;DHT22;31507;51.494;7.518;2022-09-14T09:27:14;12.90;99.90
45807;DHT22;31507;51.494;7.518;2022-09-14T09:29:41;12.80;99.90
45807;DHT22;31507;51.494;7.518;2022-09-14T09:32:17;12.90;99.90
45807;DHT22;31507;51.494;7.518;2022-09-14T09:34:43;12.90;99.90
45807;DHT22;31507;51.494;7.518;2022-09-14T09:37:16;12.90;99.90
45807;DHT22;31507;51.494;7.518;2022-09-14T09:39:43;12.90;99.90
45807;DHT22;31507;51.494;7.518;2022-09-14T09:42:23;12.90;99.90
45807;DHT22;31507;51.494;7.518;2022-09-14T09:47:33;12.90;99.90
45807;DHT22;31507;51.494;7.518;2022-09-14T09:50:23;12.90;99.90
45807;DHT22;31507;51.494;7.518;2022-09-14T09:52:56;13.00;99.90
45807;DHT22;31507;51.494;7.518;2022-09-14T09:55:27;13.00;99.90
45807;DHT22;31507;51.494;7.518;2022-09-14T09:57:55;13.00;99.90
45807;DHT22;31507;51.494;7.518;2022-09-14T10:00:24;13.00;99.90
45807;DHT22;31507;51.494;7.518;2022-09-14T10:02:51;13.00;99.90
45807;DHT22;31507;51.494;7.518;2022-09-14T10:10:16;13.20;99.90
45807;DHT22;31507;51.494;7.518;2022-09-14T10:12:48;13.20;99.90
45807;DHT22;31507;51.494;7.518;2022-09-14T10:15:30;13.20;99.90
45807;DHT22;31507;51.494;7.518;2022-09-14T10:18:14;13.20;99.90
45807;DHT22;31507;51.494;7.518;2022-09-14T10:20:43;13.20;99.90
45807;DHT22;31507;51.494;7.518;2022-09-14T10:25:49;13.00;99.90
45807;DHT22;31507;51.494;7.518;2022-09-14T10:28:22;13.00;99.90
45807;DHT22;31507;51.494;7.518;2022-09-14T10:31:06;13.00;99.90
45807;DHT22;31507;51.494;7.518;2022-09-14T10:33:33;13.00;99.90
45807;DHT22;31507;51.494;7.518;2022-09-14T10:39:13;13.00;99.90
45807;DHT22;31507;51.494;7.518;2022-09-14T10:55:05;13.00;99.90
45807;DHT22;31507;51.494;7.518;2022-09-14T10:58:03;13.10;99.90
45807;DHT22;31507;51.494;7.518;2022-09-14T11:00:40;13.10;99.90
45807;DHT22;31507;51.494;7.518;2022-09-14T11:03:23;13.00;99.90
45807;DHT22;31507;51.494;7.518;2022-09-14T11:06:10;13.00;99.90
45807;DHT22;31507;51.494;7.518;2022-09-14T11:08:45;13.00;99.90
45807;DHT22;31507;51.494;7.518;2022-09-14T11:19:46;13.00;99.90
45807;DHT22;31507;51.494;7.518;2022-09-14T11:25:35;13.10;99.90
45807;DHT22;31507;51.494;7.518;2022-09-14T11:28:00;13.20;99.90
45807;DHT22;31507;51.494;7.518;2022-09-14T11:31:36;13.30;99.90
45807;DHT22;31507;51.494;7.518;2022-09-14T11:33:37;13.40;99.90
45807;DHT22;31507;51.494;7.518;2022-09-14T11:36:18;13.50;99.90
45807;DHT22;31507;51.494;7.518;2022-09-14T11:38:51;13.50;99.90
45807;DHT22;31507;51.494;7.518;2022-09-14T11:44:09;13.50;99.90
45807;DHT22;31507;51.494;7.518;2022-09-14T11:46:56;13.40;99.90
45807;DHT22;31507;51.494;7.518;2022-09-14T11:49:33;13.40;99.90
45807;DHT22;31507;51.494;7.518;2022-09-14T11:52:16;13.60;99.90
45807;DHT22;31507;51.494;7.518;2022-09-14T11:54:43;13.40;99.90
45807;DHT22;31507;51.494;7.518;2022-09-14T11:57:17;13.60;99.90
45807;DHT22;31507;51.494;7.518;2022-09-14T12:17:46;13.50;99.90
45807;DHT22;31507;51.494;7.518;2022-09-14T12:25:59;13.50;99.90
45807;DHT22;31507;51.494;7.518;2022-09-14T12:36:05;13.60;99.90
45807;DHT22;31507;51.494;7.518;2022-09-14T12:43:46;13.70;99.90
45807;DHT22;31507;51.494;7.518;2022-09-14T13:01:50;13.90;99.90
45807;DHT22;31507;51.494;7.518;2022-09-14T13:04:31;13.90;99.90
45807;DHT22;31507;51.494;7.518;2022-09-14T13:07:00;13.90;99.90
45807;DHT22;31507;51.494;7.518;2022-09-14T13:09:28;13.80;99.90
45807;DHT22;31507;51.494;7.518;2022-09-14T13:12:01;13.80;99.90
45807;DHT22;31507;51.494;7.518;2022-09-14T13:14:30;13.90;99.90
45807;DHT22;31507;51.494;7.518;2022-09-14T13:16:58;13.90;99.90
45807;DHT22;31507;51.494;7.518;2022-09-14T13:19:27;13.90;99.90
45807;DHT22;31507;51.494;7.518;2022-09-14T13:21:55;13.90;99.90
45807;DHT22;31507;51.494;7.518;2022-09-14T13:24:52;14.00;99.90
45807;DHT22;31507;51.494;7.518;2022-09-14T13:27:28;13.90;99.90
45807;DHT22;31507;51.494;7.518;2022-09-14T13:30:03;13.80;99.90
45807;DHT22;31507;51.494;7.518;2022-09-14T13:32:30;13.80;99.90
45807;DHT22;31507;51.494;7.518;2022-09-14T13:34:56;13.80;99.90
45807;DHT22;31507;51.494;7.518;2022-09-14T13:37:23;13.90;99.90
45807;DHT22;31507;51.494;7.518;2022-09-14T13:39:52;13.90;99.90
45807;DHT22;31507;51.494;7.518;2022-09-14T13:42:20;14.10;99.90
45807;DHT22;31507;51.494;7.518;2022-09-14T13:44:47;14.10;99.90
45807;DHT22;31507;51.494;7.518;2022-09-14T13:47:17;14.20;99.90
45807;DHT22;31507;51.494;7.518;2022-09-14T13:49:45;14.20;99.90
45807;DHT22;31507;51.494;7.518;2022-09-14T13:54:54;14.40;99.90
45807;DHT22;31507;51.494;7.518;2022-09-14T13:57:22;14.40;99.90
45807;DHT22;31507;51.494;7.518;2022-09-14T14:02:59;14.60;99.90
45807;DHT22;31507;51.494;7.518;2022-09-14T14:05:40;14.60;99.90
45807;DHT22;31507;51.494;7.518;2022-09-14T14:08:27;14.60;99.90
45807;DHT22;31507;51.494;7.518;2022-09-14T14:10:54;14.60;99.90
45807;DHT22;31507;51.494;7.518;2022-09-14T14:13:31;14.60;99.90
45807;DHT22;31507;51.494;7.518;2022-09-14T14:16:18;14.60;99.90
45807;DHT22;31507;51.494;7.518;2022-09-14T14:18:56;14.60;99.90
45807;DHT22;31507;51.494;7.518;2022-09-14T14:26:50;14.50;99.90
45807;DHT22;31507;51.494;7.518;2022-09-14T14:29:17;14.50;99.90
45807;DHT22;31507;51.494;7.518;2022-09-14T14:31:44;14.50;99.90
45807;DHT22;31507;51.494;7.518;2022-09-14T14:34:22;14.50;99.90
45807;DHT22;31507;51.494;7.518;2022-09-14T14:36:49;14.50;99.90
45807;DHT22;31507;51.494;7.518;2022-09-14T14:39:18;14.60;99.90
45807;DHT22;31507;51.494;7.518;2022-09-14T14:41:45;14.50;99.90
45807;DHT22;31507;51.494;7.518;2022-09-14T14:44:22;14.50;99.90
45807;DHT22;31507;51.494;7.518;2022-09-14T14:46:49;14.50;99.90
45807;DHT22;31507;51.494;7.518;2022-09-14T14:49:16;14.50;99.90
45807;DHT22;31507;51.494;7.518;2022-09-14T14:51:43;14.50;99.90
45807;DHT22;31507;51.494;7.518;2022-09-14T14:54:09;14.60;99.90
45807;DHT22;31507;51.494;7.518;2022-09-14T14:56:36;14.60;99.90
45807;DHT22;31507;51.494;7.518;2022-09-14T14:59:02;14.60;99.90
45807;DHT22;31507;51.494;7.518;2022-09-14T15:01:29;14.70;99.90
45807;DHT22;31507;51.494;7.518;2022-09-14T15:03:55;14.70;99.90
45807;DHT22;31507;51.494;7.518;2022-09-14T15:06:22;14.60;99.90
45807;DHT22;31507;51.494;7.518;2022-09-14T15:08:53;14.60;99.90
45807;DHT22;31507;51.494;7.518;2022-09-14T15:11:19;14.50;99.90
45807;DHT22;31507;51.494;7.518;2022-09-14T15:13:46;14.50;99.90
45807;DHT22;31507;51.494;7.518;2022-09-14T15:16:12;14.50;99.90
45807;DHT22;31507;51.494;7.518;2022-09-14T15:18:38;14.50;99.90
45807;DHT22;31507;51.494;7.518;2022-09-14T15:21:05;14.50;99.90
45807;DHT22;31507;51.494;7.518;2022-09-14T15:23:32;14.50;99.90
45807;DHT22;31507;51.494;7.518;2022-09-14T15:25:58;14.50;99.90
45807;DHT22;31507;51.494;7.518;2022-09-14T15:28:24;14.50;99.90
45807;DHT22;31507;51.494;7.518;2022-09-14T15:30:49;14.50;99.90
45807;DHT22;31507;51.494;7.518;2022-09-14T15:33:16;14.60;99.90
45807;DHT22;31507;51.494;7.518;2022-09-14T15:35:42;14.60;99.90
45807;DHT22;31507;51.494;7.518;2022-09-14T15:38:09;14.70;99.90
45807;DHT22;31507;51.494;7.518;2022-09-14T15:40:35;14.70;99.90
45807;DHT22;31507;51.494;7.518;2022-09-14T15:43:01;14.80;99.90
45807;DHT22;31507;51.494;7.518;2022-09-14T15:45:27;14.70;99.90
45807;DHT22;31507;51.494;7.518;2022-09-14T15:47:53;14.70;99.90
45807;DHT22;31507;51.494;7.518;2022-09-14T15:50:19;14.70;99.90
45807;DHT22;31507;51.494;7.518;2022-09-14T15:52:47;14.60;99.90
45807;DHT22;31507;51.494;7.518;2022-09-14T15:55:17;14.60;99.90
45807;DHT22;31507;51.494;7.518;2022-09-14T15:57:43;14.60;99.90
45807;DHT22;31507;51.494;7.518;2022-09-14T16:00:09;14.50;99.90
45807;DHT22;31507;51.494;7.518;2022-09-14T16:02:36;14.50;99.90
45807;DHT22;31507;51.494;7.518;2022-09-14T16:05:02;14.50;99.90
45807;DHT22;31507;51.494;7.518;2022-09-14T16:07:28;14.40;99.90
45807;DHT22;31507;51.494;7.518;2022-09-14T16:09:54;14.40;99.90
45807;DHT22;31507;51.494;7.518;2022-09-14T16:12:20;14.30;99.90
45807;DHT22;31507;51.494;7.518;2022-09-14T16:14:45;14.40;99.90
45807;DHT22;31507;51.494;7.518;2022-09-14T16:17:11;14.40;99.90
45807;DHT22;31507;51.494;7.518;2022-09-14T16:19:37;14.30;99.90
45807;DHT22;31507;51.494;7.518;2022-09-14T16:22:03;14.30;99.90
45807;DHT22;31507;51.494;7.518;2022-09-14T16:24:29;14.30;99.90
45807;DHT22;31507;51.494;7.518;2022-09-14T16:26:55;14.30;99.90
45807;DHT22;31507;51.494;7.518;2022-09-14T16:29:23;14.30;99.90
45807;DHT22;31507;51.494;7.518;2022-09-14T16:31:49;14.30;99.90
45807;DHT22;31507;51.494;7.518;2022-09-14T16:34:28;14.20;99.90
45807;DHT22;31507;51.494;7.518;2022-09-14T16:36:54;14.20;99.90
45807;DHT22;31507;51.494;7.518;2022-09-14T16:39:22;14.20;99.90
45807;DHT22;31507;51.494;7.518;2022-09-14T16:41:49;14.20;99.90
45807;DHT22;31507;51.494;7.518;2022-09-14T16:44:20;14.10;99.90
45807;DHT22;31507;51.494;7.518;2022-09-14T16:46:47;14.10;99.90
45807;DHT22;31507;51.494;7.518;2022-09-14T16:49:14;14.10;99.90
45807;DHT22;31507;51.494;7.518;2022-09-14T16:51:40;14.10;99.90
45807;DHT22;31507;51.494;7.518;2022-09-14T16:54:06;14.10;99.90
45807;DHT22;31507;51.494;7.518;2022-09-14T16:56:35;14.10;99.90
45807;DHT22;31507;51.494;7.518;2022-09-14T16:59:02;14.10;99.90
45807;DHT22;31507;51.494;7.518;2022-09-14T17:01:40;14.10;99.90
45807;DHT22;31507;51.494;7.518;2022-09-14T17:04:08;14.10;99.90
45807;DHT22;31507;51.494;7.518;2022-09-14T17:06:36;14.10;99.90
45807;DHT22;31507;51.494;7.518;2022-09-14T17:09:08;14.10;99.90
45807;DHT22;31507;51.494;7.518;2022-09-14T17:11:35;14.10;99.90
45807;DHT22;31507;51.494;7.518;2022-09-14T17:14:02;14.10;99.90
45807;DHT22;31507;51.494;7.518;2022-09-14T17:16:28;14.00;99.90
45807;DHT22;31507;51.494;7.518;2022-09-14T17:18:57;14.00;99.90
45807;DHT22;31507;51.494;7.518;2022-09-14T17:21:26;13.90;99.90
45807;DHT22;31507;51.494;7.518;2022-09-14T17:23:52;13.90;99.90
45807;DHT22;31507;51.494;7.518;2022-09-14T17:26:20;13.90;99.90
45807;DHT22;31507;51.494;7.518;2022-09-14T17:28:47;13.90;99.90
45807;DHT22;31507;51.494;7.518;2022-09-14T17:31:19;13.80;99.90
45807;DHT22;31507;51.494;7.518;2022-09-14T17:33:45;13.70;99.90
45807;DHT22;31507;51.494;7.518;2022-09-14T17:36:12;13.70;99.90
45807;DHT22;31507;51.494;7.518;2022-09-14T17:38:39;13.70;99.90
45807;DHT22;31507;51.494;7.518;2022-09-14T17:41:07;13.70;99.90
45807;DHT22;31507;51.494;7.518;2022-09-14T17:43:34;13.70;99.90
45807;DHT22;31507;51.494;7.518;2022-09-14T17:46:00;13.60;99.90
45807;DHT22;31507;51.494;7.518;2022-09-14T17:48:31;13.60;99.90
45807;DHT22;31507;51.494;7.518;2022-09-14T17:50:56;13.60;99.90
45807;DHT22;31507;51.494;7.518;2022-09-14T17:53:23;13.60;99.90
45807;DHT22;31507;51.494;7.518;2022-09-14T17:55:49;13.60;99.90
45807;DHT22;31507;51.494;7.518;2022-09-14T17:58:15;13.50;99.90
45807;DHT22;31507;51.494;7.518;2022-09-14T18:00:41;13.50;99.90
45807;DHT22;31507;51.494;7.518;2022-09-14T18:03:06;13.50;99.90
45807;DHT22;31507;51.494;7.518;2022-09-14T18:05:33;13.50;99.90
45807;DHT22;31507;51.494;7.518;2022-09-14T18:07:59;13.40;99.90
45807;DHT22;31507;51.494;7.518;2022-09-14T18:10:24;13.40;99.90
45807;DHT22;31507;51.494;7.518;2022-09-14T18:12:50;13.30;99.90
45807;DHT22;31507;51.494;7.518;2022-09-14T18:15:17;13.30;99.90
45807;DHT22;31507;51.494;7.518;2022-09-14T18:17:44;13.30;99.90